Time;durP1;ratioP1;P1;durP2;ratioP2;P2;SDS_P1;SDS_P2;PMS_P1;PMS_P2;Temp;Humidity;BMP_temperature;BMP_pressure;BME280_temperature;BME280_humidity;BME280_pressure;Samples;Min_cycle;Max_cycle;Signal;HPM_P1;HPM_P2
2022/05/21 00:02:11;;;;;;;5.50;2.90;;;;;;;22.84;46.90;98543.29;233006;1222;138732;-62
2022/05/21 00:07:15;;;;;;;8.10;2.70;;;;;;;22.94;46.72;98547.25;233061;1222;139001;-63
2022/05/21 00:12:18;;;;;;;9.00;2.80;;;;;;;22.97;46.61;98542.31;233136;1222;139628;-62
2022/05/21 00:17:21;;;;;;;12.70;2.80;;;;;;;23.04;46.62;98540.63;232744;1222;139341;-63
2022/05/21 00:22:24;;;;;;;8.20;2.00;;;;;;;23.06;46.54;98540.13;232793;1222;138658;-62
2022/05/21 00:27:27;;;;;;;15.60;1.80;;;;;;;23.15;46.54;98539.38;232738;1222;139026;-62
2022/05/21 00:32:30;;;;;;;16.60;1.80;;;;;;;23.21;46.17;98536.11;233151;1222;138755;-62
2022/05/21 00:37:33;;;;;;;6.30;1.20;;;;;;;23.26;46.09;98542.27;233034;1222;139225;-62
2022/05/21 00:42:42;;;;;;;6.10;1.10;;;;;;;23.23;46.08;98519.84;233143;1222;138646;-62
2022/05/21 00:47:46;;;;;;;11.30;1.30;;;;;;;23.18;46.33;98512.46;232948;1222;138431;-62
2022/05/21 00:52:50;;;;;;;2.70;0.90;;;;;;;23.11;46.50;98465.64;233046;1222;138762;-62
2022/05/21 01:03:24;;;;;;;6.00;1.20;;;;;;;22.98;46.66;98497.88;233121;1222;138955;-62
2022/05/21 01:08:27;;;;;;;1.30;0.80;;;;;;;22.87;46.75;98493.23;233063;1223;138592;-61
2022/05/21 01:13:33;;;;;;;2.80;0.80;;;;;;;22.79;46.84;98474.83;233030;1224;138880;-62
2022/05/21 01:18:36;;;;;;;6.50;1.10;;;;;;;22.74;46.97;98472.00;232888;1222;139811;-63
2022/05/21 01:23:39;;;;;;;5.90;0.90;;;;;;;22.68;47.15;98456.26;232992;1223;138833;-62
2022/05/21 01:28:42;;;;;;;2.40;1.00;;;;;;;22.64;47.18;98476.07;232816;1223;139040;-63
2022/05/21 01:33:45;;;;;;;2.90;0.90;;;;;;;22.58;47.22;98479.95;232521;1222;138409;-64
2022/05/21 01:38:49;;;;;;;4.60;1.20;;;;;;;22.53;47.33;98483.04;233059;1223;138884;-64
2022/05/21 01:49:14;;;;;;;5.90;1.20;;;;;;;22.49;47.43;98486.63;233170;1222;138727;-65
2022/05/21 01:54:17;;;;;;;2.30;1.20;;;;;;;22.46;47.69;98484.52;233012;1223;138681;-66
2022/05/21 01:59:20;;;;;;;4.10;1.10;;;;;;;22.40;47.80;98484.60;232825;1222;138480;-61
2022/05/21 02:04:23;;;;;;;4.70;1.00;;;;;;;22.34;47.82;98479.04;233047;1223;139379;-63
2022/05/21 02:09:26;;;;;;;1.90;0.80;;;;;;;22.32;47.96;98481.42;233053;1221;138589;-62
2022/05/21 02:14:29;;;;;;;1.70;1.00;;;;;;;22.29;48.02;98492.30;231977;1222;138534;-62
2022/05/21 02:19:33;;;;;;;2.40;1.10;;;;;;;22.28;48.13;98488.75;233043;1223;138720;-63
2022/05/21 02:24:36;;;;;;;1.60;1.00;;;;;;;22.24;48.11;98479.88;232961;1222;139003;-63
2022/05/21 02:29:39;;;;;;;2.60;1.10;;;;;;;22.19;48.35;98484.84;233025;1222;138486;-62
2022/05/21 02:34:43;;;;;;;5.20;1.40;;;;;;;22.15;48.45;98489.18;231590;1222;138891;-62
2022/05/21 02:39:47;;;;;;;5.40;1.30;;;;;;;22.11;48.55;98467.15;231625;1222;139181;-62
2022/05/21 02:44:50;;;;;;;3.50;1.40;;;;;;;21.99;48.51;98452.77;232418;1223;138839;-61
2022/05/21 02:49:53;;;;;;;5.00;1.20;;;;;;;21.89;48.82;98460.02;231288;1223;140672;-62
2022/05/21 02:54:57;;;;;;;3.20;1.10;;;;;;;21.80;49.02;98451.15;231344;1221;138242;-61
2022/05/21 03:00:06;;;;;;;4.20;1.30;;;;;;;21.72;49.25;98452.39;233058;1222;138935;-62
2022/05/21 03:05:10;;;;;;;2.00;1.00;;;;;;;21.66;49.32;98459.77;232857;1223;138798;-62
2022/05/21 03:10:23;;;;;;;4.50;1.40;;;;;;;21.62;49.58;98460.86;232737;1224;138980;-62
2022/05/21 03:15:37;;;;;;;2.40;1.40;;;;;;;21.58;49.61;98457.17;233015;1222;139849;-63
2022/05/21 03:20:41;;;;;;;1.80;1.20;;;;;;;21.58;49.74;98465.22;232680;1223;139323;-64
2022/05/21 03:25:44;;;;;;;3.60;1.40;;;;;;;21.59;49.73;98469.89;232781;1222;138451;-64
2022/05/21 03:30:48;;;;;;;4.20;1.30;;;;;;;21.60;49.90;98471.67;232867;1223;138769;-61
2022/05/21 03:35:51;;;;;;;6.40;1.60;;;;;;;21.62;49.91;98465.30;232888;1223;138982;-63
2022/05/21 03:40:54;;;;;;;4.50;1.60;;;;;;;21.65;49.84;98474.48;233045;1222;138925;-63
2022/05/21 03:45:57;;;;;;;4.80;1.70;;;;;;;21.68;49.92;98466.10;232892;1223;138870;-62
2022/05/21 03:51:00;;;;;;;3.10;1.60;;;;;;;21.70;49.83;98464.73;233128;1223;139289;-64
2022/05/21 03:56:04;;;;;;;6.60;2.00;;;;;;;21.73;50.06;98479.50;233003;1223;138335;-63
2022/05/21 04:01:07;;;;;;;10.30;2.20;;;;;;;21.78;49.99;98487.29;233065;1224;138486;-65
2022/05/21 04:06:12;;;;;;;5.40;1.90;;;;;;;21.82;49.97;98490.07;232580;1223;138793;-61
2022/05/21 04:11:16;;;;;;;6.10;2.00;;;;;;;21.87;50.07;98496.16;232771;1222;138719;-62
2022/05/21 04:16:18;;;;;;;8.70;3.20;;;;;;;21.89;50.19;98487.21;232733;1223;139265;-62
2022/05/21 04:21:23;;;;;;;5.00;2.30;;;;;;;21.96;50.00;98492.49;232895;1222;138876;-62
2022/05/21 04:26:26;;;;;;;30.10;21.00;;;;;;;22.00;50.11;98494.37;232854;1222;138663;-63
2022/05/21 04:31:29;;;;;;;18.40;13.30;;;;;;;22.06;50.14;98490.50;232819;1223;139539;-66
2022/05/21 04:36:35;;;;;;;5.80;3.30;;;;;;;22.15;50.24;98493.59;232857;1223;139110;-63
2022/05/21 04:41:39;;;;;;;8.60;2.30;;;;;;;22.20;50.03;98498.90;232831;1222;138824;-64
2022/05/21 04:46:43;;;;;;;4.30;2.20;;;;;;;22.21;50.18;98500.30;232865;1222;139174;-63
2022/05/21 04:51:46;;;;;;;153.80;124.50;;;;;;;22.22;50.05;98512.96;232879;1222;138859;-61
2022/05/21 04:56:49;;;;;;;8.50;4.90;;;;;;;22.25;50.15;98511.23;232809;1223;139611;-61
2022/05/21 05:01:52;;;;;;;39.80;32.80;;;;;;;22.31;50.11;98516.24;233029;1222;138880;-61
2022/05/21 05:06:55;;;;;;;10.90;2.60;;;;;;;22.33;50.05;98520.81;232876;1222;140261;-63
2022/05/21 05:11:58;;;;;;;5.70;2.60;;;;;;;22.39;49.98;98537.90;232722;1223;139011;-60
2022/05/21 05:17:02;;;;;;;11.70;2.50;;;;;;;22.36;49.98;98533.31;232999;1222;138735;-62
2022/05/21 05:22:09;;;;;;;5.80;2.40;;;;;;;22.37;50.11;98534.89;232904;1222;138522;-62
2022/05/21 05:27:12;;;;;;;8.50;2.60;;;;;;;22.35;49.96;98526.80;232972;1222;138690;-62
2022/05/21 05:32:15;;;;;;;6.30;2.30;;;;;;;22.33;50.06;98533.40;232789;1222;138939;-60
2022/05/21 05:37:18;;;;;;;6.10;2.70;;;;;;;22.33;50.12;98536.45;232888;1222;138323;-63
2022/05/21 05:42:21;;;;;;;10.80;2.60;;;;;;;22.27;50.38;98553.17;232885;1222;138902;-62
2022/05/21 05:47:27;;;;;;;5.80;2.60;;;;;;;22.16;50.58;98550.77;232795;1222;138783;-63
2022/05/21 05:52:30;;;;;;;4.30;2.50;;;;;;;22.02;51.01;98566.23;232805;1221;138740;-62
2022/05/21 05:57:36;;;;;;;8.80;2.80;;;;;;;21.76;51.65;98569.67;232933;1222;138527;-63
2022/05/21 06:02:59;;;;;;;6.80;2.30;;;;;;;21.58;52.37;98570.02;232906;1222;138978;-63
2022/05/21 06:08:10;;;;;;;5.20;2.20;;;;;;;21.41;53.21;98562.52;232925;1222;139797;-62
2022/05/21 06:13:14;;;;;;;8.30;3.00;;;;;;;21.26;53.95;98573.27;232520;1222;138721;-63
2022/05/21 06:18:20;;;;;;;5.80;2.70;;;;;;;21.13;54.41;98575.64;232757;1222;139680;-63
2022/05/21 06:23:23;;;;;;;7.00;2.90;;;;;;;21.07;54.98;98587.98;232796;1221;138688;-63
2022/05/21 06:28:28;;;;;;;6.00;2.80;;;;;;;20.99;55.29;98580.21;232836;1222;139019;-62
2022/05/21 06:33:32;;;;;;;12.10;4.10;;;;;;;21.04;55.70;98585.08;233025;1222;138929;-66
2022/05/21 06:38:38;;;;;;;6.70;3.30;;;;;;;21.10;56.11;98584.92;233117;1222;139850;-67
2022/05/21 06:43:41;;;;;;;5.30;2.90;;;;;;;21.21;56.25;98589.27;232628;1222;139022;-67
2022/05/21 06:48:54;;;;;;;8.20;3.70;;;;;;;21.26;56.48;98589.10;232841;1222;138346;-64
2022/05/21 06:53:59;;;;;;;;;;;;;;;21.31;56.65;98592.33;232928;1221;138212;-66
2022/05/21 06:59:02;;;;;;;9.00;3.80;;;;;;;21.37;56.92;98589.51;232940;1222;125707;-68
2022/05/21 07:04:08;;;;;;;10.10;3.70;;;;;;;21.46;56.95;98593.91;233132;1222;139038;-68
2022/05/21 07:09:11;;;;;;;8.30;4.30;;;;;;;21.51;56.84;98598.96;233038;1222;139672;-67
2022/05/21 07:14:15;;;;;;;9.20;4.40;;;;;;;21.66;56.85;98611.05;232933;1222;138554;-68
2022/05/21 07:19:18;;;;;;;7.80;3.00;;;;;;;21.77;56.40;98614.75;232744;1222;139293;-66
2022/05/21 07:24:26;;;;;;;8.30;2.70;;;;;;;21.79;55.69;98617.84;232853;1222;138420;-68
2022/05/21 07:29:30;;;;;;;9.10;2.40;;;;;;;21.79;54.87;98622.45;232954;1222;139823;-68
2022/05/21 07:34:34;;;;;;;12.40;1.90;;;;;;;21.78;54.15;98632.45;232720;1222;139280;-68
2022/05/21 07:39:38;;;;;;;8.20;1.90;;;;;;;21.77;53.24;98631.52;232987;1221;139293;-64
2022/05/21 07:44:43;;;;;;;5.30;1.70;;;;;;;21.74;52.58;98642.46;232612;1222;138914;-63
2022/05/21 07:49:46;;;;;;;17.30;2.00;;;;;;;21.67;51.78;98643.10;232919;1221;140849;-62
2022/05/21 07:54:49;;;;;;;8.00;1.60;;;;;;;21.63;51.38;98651.21;232699;1222;139187;-63
2022/05/21 07:59:53;;;;;;;7.10;1.70;;;;;;;21.59;51.28;98654.34;232742;1222;138754;-62
2022/05/21 08:04:56;;;;;;;10.70;1.30;;;;;;;21.61;50.69;98669.08;232872;1220;141801;-62
2022/05/21 08:09:59;;;;;;;15.30;1.50;;;;;;;21.54;49.60;98672.39;232673;1222;139479;-62
2022/05/21 08:15:03;;;;;;;9.00;1.20;;;;;;;21.43;48.75;98674.87;232822;1221;139818;-62
2022/05/21 08:20:13;;;;;;;12.50;1.10;;;;;;;21.43;48.34;98671.77;232803;1222;139263;-62
2022/05/21 08:30:38;;;;;;;16.90;1.50;;;;;;;21.57;47.53;98652.20;232790;1222;138864;-63
2022/05/21 08:35:41;;;;;;;13.30;1.30;;;;;;;21.66;46.84;98658.02;232989;1222;138657;-64
2022/05/21 08:41:05;;;;;;;23.20;1.30;;;;;;;21.79;46.55;98660.35;232900;1222;139323;-64
2022/05/21 08:46:15;;;;;;;16.40;0.90;;;;;;;21.86;45.55;98662.08;232699;1222;139117;-64
2022/05/21 08:51:26;;;;;;;13.70;1.20;;;;;;;21.83;44.95;98663.12;232905;1222;139557;-64
2022/05/21 08:56:32;;;;;;;16.40;1.40;;;;;;;21.85;44.58;98679.52;232575;1222;138892;-64
2022/05/21 09:01:40;;;;;;;13.40;1.20;;;;;;;21.87;44.30;98687.70;232804;1222;139031;-65
2022/05/21 09:07:00;;;;;;;12.40;1.20;;;;;;;21.96;43.48;98707.35;232862;1222;138699;-65
2022/05/21 09:12:53;;;;;;;14.30;1.10;;;;;;;21.92;42.84;98701.86;232545;1223;138895;-61
2022/05/21 09:18:02;;;;;;;12.20;0.90;;;;;;;21.89;42.25;98728.88;231971;1222;139829;-65
2022/05/21 09:23:11;;;;;;;14.20;1.10;;;;;;;21.90;41.91;98726.61;232976;1221;139631;-65
2022/05/21 09:28:20;;;;;;;8.40;1.00;;;;;;;21.97;41.82;98727.77;232595;1222;139838;-64
2022/05/21 09:33:45;;;;;;;18.80;1.10;;;;;;;22.04;41.53;98723.36;231456;1220;138172;-65
2022/05/21 09:38:52;;;;;;;13.10;1.10;;;;;;;22.13;41.31;98724.37;232966;1222;138719;-64
2022/05/21 09:49:29;;;;;;;11.30;1.00;;;;;;;22.33;40.46;98742.73;232167;1222;139038;-64
2022/05/21 09:54:36;;;;;;;10.50;1.60;;;;;;;22.37;40.17;98728.08;231327;1222;138569;-65
2022/05/21 09:59:40;;;;;;;10.20;0.90;;;;;;;22.51;40.23;98731.06;233006;1222;138856;-66
2022/05/21 10:04:52;;;;;;;8.70;0.90;;;;;;;22.68;39.97;98740.98;232280;1222;138885;-66
2022/05/21 10:15:24;;;;;;;8.20;1.00;;;;;;;22.89;39.45;98746.64;232431;1222;138982;-65
2022/05/21 10:20:39;;;;;;;7.50;0.70;;;;;;;22.97;39.05;98743.55;232892;1222;139264;-66
2022/05/21 10:26:15;;;;;;;3.90;0.70;;;;;;;23.06;38.94;98740.46;232995;1222;138857;-66
2022/05/21 10:31:25;;;;;;;6.70;0.70;;;;;;;23.23;38.47;98749.83;232930;1222;138538;-63
2022/05/21 10:36:43;;;;;;;6.20;0.90;;;;;;;23.23;38.23;98751.32;232804;1222;138493;-64
2022/05/21 10:42:05;;;;;;;;;;;;;;;23.18;37.97;98761.05;233140;1221;138929;-65
2022/05/21 10:47:29;;;;;;;4.40;0.60;;;;;;;23.11;37.53;98761.92;233126;1222;125408;-64
2022/05/21 10:52:55;;;;;;;6.00;0.70;;;;;;;23.18;37.36;98763.10;232812;1222;138835;-65
2022/05/21 10:58:22;;;;;;;7.00;1.10;;;;;;;23.21;37.20;98762.06;232771;1222;138176;-64
2022/05/21 11:03:33;;;;;;;13.10;0.90;;;;;;;23.31;37.01;98763.15;233104;1222;138716;-65
2022/05/21 11:08:47;;;;;;;10.60;0.80;;;;;;;23.48;36.89;98767.27;231356;1222;139697;-63
2022/05/21 11:13:59;;;;;;;4.90;0.90;;;;;;;23.62;36.67;98763.23;232826;1222;139150;-63
2022/05/21 11:19:13;;;;;;;7.80;0.80;;;;;;;23.71;36.25;98767.48;232980;1222;138617;-60
2022/05/21 11:24:25;;;;;;;6.30;0.80;;;;;;;23.74;36.05;98756.59;233094;1222;138728;-61
2022/05/21 11:30:00;;;;;;;6.00;0.90;;;;;;;24.06;35.92;98749.41;232745;1222;138994;-59
2022/05/21 11:41:43;;;;;;;8.00;0.70;;;;;;;24.56;35.02;98751.20;232506;1222;138551;-62
2022/05/21 11:46:36;;;;;;;3.60;0.80;;;;;;;24.74;34.86;98750.77;232666;1224;138894;-60
2022/05/21 11:51:39;;;;;;;2.80;0.60;;;;;;;24.71;34.48;98743.41;232915;1222;139025;-63
2022/05/21 11:57:30;;;;;;;7.20;1.20;;;;;;;24.82;34.46;98740.67;232908;1222;138844;-63
2022/05/21 12:02:38;;;;;;;4.00;0.60;;;;;;;24.79;34.25;98740.69;232625;1222;138284;-64
2022/05/21 12:07:40;;;;;;;4.30;0.80;;;;;;;24.76;34.04;98746.38;232625;1222;138881;-64
2022/05/21 12:13:06;;;;;;;1.70;0.80;;;;;;;24.92;34.15;98739.98;232518;1222;138805;-65
2022/05/21 12:18:54;;;;;;;2.40;1.10;;;;;;;25.13;34.23;98734.34;233053;1222;139435;-63
2022/05/21 12:23:57;;;;;;;6.00;0.90;;;;;;;25.21;33.96;98745.69;231877;1225;138181;-67
2022/05/21 12:29:12;;;;;;;5.50;0.80;;;;;;;25.12;33.57;98748.07;232577;1222;138524;-66
2022/05/21 12:34:33;;;;;;;7.70;0.80;;;;;;;25.18;33.22;98751.23;233037;1222;138924;-66
2022/05/21 12:39:54;;;;;;;4.00;0.70;;;;;;;25.39;33.24;98749.23;232941;1222;138489;-62
2022/05/21 12:44:59;;;;;;;7.30;0.90;;;;;;;25.50;33.03;98752.33;232937;1222;138684;-62
2022/05/21 12:50:16;;;;;;;9.60;0.90;;;;;;;25.64;32.70;98751.59;232833;1222;138921;-64
2022/05/21 12:55:29;;;;;;;8.70;1.20;;;;;;;25.67;32.33;98751.49;232633;1222;138955;-61
2022/05/21 13:00:33;;;;;;;13.10;4.00;;;;;;;25.82;32.40;98761.21;232843;1222;139024;-61
2022/05/21 13:05:56;;;;;;;9.60;1.60;;;;;;;25.93;31.98;98763.13;232873;1222;139046;-59
2022/05/21 13:11:28;;;;;;;7.80;1.20;;;;;;;25.85;31.82;98753.35;232636;1222;138747;-62
2022/05/21 13:16:43;;;;;;;8.60;0.80;;;;;;;25.70;31.63;98758.47;232767;1222;139390;-63
2022/05/21 13:22:27;;;;;;;5.60;0.80;;;;;;;25.71;31.65;98751.59;232909;1222;138924;-63
2022/05/21 13:27:44;;;;;;;5.40;0.90;;;;;;;25.86;31.35;98762.84;231749;1227;138925;-63
2022/05/21 13:32:59;;;;;;;5.00;0.80;;;;;;;25.92;30.96;98763.80;232458;1222;139342;-64
2022/05/21 13:38:04;;;;;;;9.00;0.80;;;;;;;25.99;31.01;98770.95;232760;1222;139494;-63
2022/05/21 13:43:10;;;;;;;5.40;0.90;;;;;;;26.04;31.06;98765.94;232547;1222;138736;-64
2022/05/21 13:48:17;;;;;;;11.90;8.40;;;;;;;26.22;30.98;98771.18;232486;1222;138897;-63
2022/05/21 13:53:26;;;;;;;5.30;1.00;;;;;;;26.36;30.66;98780.83;232753;1222;139027;-64
2022/05/21 13:58:34;;;;;;;10.70;1.10;;;;;;;26.38;30.69;98783.20;232913;1222;139426;-64
2022/05/21 14:03:45;;;;;;;6.60;0.80;;;;;;;26.24;30.36;98782.48;232819;1222;138860;-65
2022/05/21 14:09:00;;;;;;;3.90;1.00;;;;;;;26.05;30.54;98779.48;232680;1222;138495;-64
2022/05/21 14:14:06;;;;;;;4.60;0.80;;;;;;;26.13;30.32;98784.70;232937;1222;139713;-64
2022/05/21 14:19:15;;;;;;;60.80;43.40;;;;;;;26.09;30.01;98769.65;232840;1222;138951;-63
2022/05/21 14:24:25;;;;;;;6.60;1.50;;;;;;;25.96;29.87;98766.29;232876;1222;138971;-62
2022/05/21 14:29:38;;;;;;;4.30;0.80;;;;;;;25.86;29.83;98769.33;233064;1222;138937;-63
2022/05/21 14:34:45;;;;;;;10.60;5.30;;;;;;;25.61;29.64;98771.86;232823;1222;139155;-62
2022/05/21 14:39:48;;;;;;;4.90;1.40;;;;;;;25.40;29.57;98770.19;232919;1222;140134;-62
2022/05/21 14:44:52;;;;;;;8.70;0.90;;;;;;;25.24;29.69;98776.77;232931;1221;140170;-63
2022/05/21 14:52:49;;;;;;;39.60;27.90;;;;;;;25.08;29.71;98779.88;232585;1222;139753;-63
2022/05/21 14:55:21;;;;;;;15.60;14.00;;;;;;;24.88;29.87;98781.45;232877;1222;141111;-63
2022/05/21 15:00:25;;;;;;;14.30;6.10;;;;;;;24.73;30.03;98785.31;232598;1222;141771;-63
2022/05/21 15:05:30;;;;;;;7.20;1.60;;;;;;;24.57;30.06;98777.66;232696;1222;139458;-64
2022/05/21 15:10:33;;;;;;;6.90;1.20;;;;;;;24.43;30.21;98773.48;233006;1222;138890;-63
2022/05/21 15:15:36;;;;;;;5.60;1.00;;;;;;;24.38;30.44;98774.27;232396;1222;138367;-65
2022/05/21 15:59:51;;;;;;;16.90;12.90;;;;;;;22.20;32.33;98778.83;227611;1233;637501;-65
2022/05/21 16:05:08;;;;;;;7.90;3.10;;;;;;;22.12;32.50;98785.31;231089;1224;138015;-62
2022/05/21 16:10:16;;;;;;;11.30;6.60;;;;;;;22.09;32.46;98789.12;232893;1222;137991;-61
2022/05/21 16:15:27;;;;;;;6.40;2.10;;;;;;;22.11;32.35;98789.81;233195;1222;137408;-62
2022/05/21 16:20:48;;;;;;;6.90;1.80;;;;;;;22.06;32.44;98787.57;232586;1222;138070;-63
2022/05/21 16:25:57;;;;;;;4.70;1.90;;;;;;;22.01;32.30;98797.79;233078;1223;137909;-62
2022/05/21 16:31:08;;;;;;;8.00;2.10;;;;;;;22.02;32.52;98801.88;232518;1223;138519;-61
2022/05/21 16:36:26;;;;;;;3.20;2.00;;;;;;;22.05;32.59;98804.85;232878;1223;137657;-60
2022/05/21 16:41:48;;;;;;;11.00;2.20;;;;;;;22.10;32.57;98804.96;232653;1223;139153;-61
2022/05/21 16:46:57;;;;;;;8.20;2.80;;;;;;;22.09;32.40;98801.48;232816;1224;138294;-62
2022/05/21 16:52:17;;;;;;;33.20;23.60;;;;;;;22.01;31.67;98790.84;231349;1222;137635;-62
2022/05/21 16:57:45;;;;;;;8.10;1.70;;;;;;;21.97;31.34;98781.98;231968;1224;138511;-62
2022/05/21 17:03:13;;;;;;;5.40;0.80;;;;;;;21.89;30.97;98785.96;231519;1223;138863;-64
2022/05/21 17:08:33;;;;;;;3.90;1.40;;;;;;;21.82;30.83;98784.14;232463;1224;138445;-61
2022/05/21 17:13:45;;;;;;;4.80;1.00;;;;;;;21.69;30.66;98778.63;232555;1223;138293;-62
2022/05/21 17:19:06;;;;;;;4.10;1.30;;;;;;;21.60;30.47;98785.31;233351;1217;137854;-63
2022/05/21 17:24:25;;;;;;;3.30;1.00;;;;;;;21.49;30.49;98782.34;233450;1217;139309;-62
2022/05/21 17:35:01;;;;;;;4.60;0.80;;;;;;;21.30;30.35;98787.20;233616;1217;138066;-64
2022/05/21 17:40:07;;;;;;;4.40;0.80;;;;;;;21.25;30.46;98790.58;233416;1219;138439;-64
2022/05/21 17:45:24;;;;;;;67.80;55.30;;;;;;;21.17;30.44;98787.89;233108;1220;138189;-62
2022/05/21 17:50:28;;;;;;;4.60;2.20;;;;;;;21.16;30.73;98791.60;233303;1219;138413;-63
2022/05/21 17:55:31;;;;;;;19.10;1.20;;;;;;;21.15;30.64;98786.13;233541;1219;138556;-62
2022/05/21 18:00:37;;;;;;;3.60;0.90;;;;;;;21.09;30.69;98785.67;233325;1217;138706;-63
2022/05/21 18:05:46;;;;;;;3.10;0.90;;;;;;;20.98;30.83;98782.70;233368;1217;138339;-61
2022/05/21 18:10:50;;;;;;;4.40;1.10;;;;;;;20.98;31.10;98782.75;233145;1217;138443;-61
2022/05/21 18:21:18;;;;;;;1.90;0.90;;;;;;;21.04;31.58;98790.21;232580;1217;138087;-61
2022/05/21 18:26:22;;;;;;;2.00;1.30;;;;;;;21.01;31.71;98791.98;233406;1219;139400;-61
2022/05/21 18:31:29;;;;;;;3.60;1.60;;;;;;;20.97;31.71;98800.69;233169;1217;138304;-59
2022/05/21 18:36:35;;;;;;;4.40;1.20;;;;;;;20.93;31.89;98802.08;233572;1220;138025;-58
2022/05/21 18:41:38;;;;;;;24.70;18.20;;;;;;;20.89;32.02;98807.02;233419;1219;138337;-62
2022/05/21 18:46:42;;;;;;;7.60;6.10;;;;;;;20.89;32.13;98809.38;232793;1219;138893;-62
2022/05/21 18:51:46;;;;;;;6.70;2.20;;;;;;;20.87;32.16;98811.21;233534;1218;138476;-62
2022/05/21 18:56:50;;;;;;;5.60;1.60;;;;;;;20.74;32.06;98812.17;233474;1220;139084;-62
2022/05/21 19:01:53;;;;;;;4.40;1.40;;;;;;;20.63;32.16;98816.34;233375;1219;138622;-62
2022/05/21 19:06:56;;;;;;;2.60;1.20;;;;;;;20.52;32.26;98818.52;233272;1217;138053;-61
2022/05/21 19:12:00;;;;;;;1.60;1.10;;;;;;;20.41;32.40;98819.85;233446;1217;138446;-62
2022/05/21 19:17:03;;;;;;;3.00;1.20;;;;;;;20.30;32.55;98816.47;233671;1217;138687;-62
2022/05/21 19:22:07;;;;;;;5.60;3.90;;;;;;;20.16;32.75;98822.39;233728;1217;138425;-61
2022/05/21 19:27:13;;;;;;;4.20;2.90;;;;;;;20.00;32.94;98829.58;233452;1217;138258;-61
2022/05/21 19:32:16;;;;;;;3.40;0.90;;;;;;;19.90;33.14;98833.18;233376;1217;137934;-63
2022/05/21 19:37:19;;;;;;;6.20;1.00;;;;;;;19.79;33.27;98829.94;233398;1217;138841;-61
2022/05/21 19:42:23;;;;;;;5.90;1.10;;;;;;;19.70;33.59;98839.02;233525;1217;138292;-61
2022/05/21 19:47:25;;;;;;;40.40;28.60;;;;;;;19.62;33.81;98837.50;233531;1217;138256;-60
2022/05/21 19:52:29;;;;;;;8.30;2.50;;;;;;;19.62;33.93;98836.74;233616;1217;138756;-62
2022/05/21 19:57:32;;;;;;;5.00;1.30;;;;;;;19.61;33.95;98844.00;233336;1217;138542;-61
2022/05/21 20:02:37;;;;;;;52.30;34.40;;;;;;;19.57;34.12;98841.70;233401;1217;138613;-60
2022/05/21 20:07:40;;;;;;;4.50;2.30;;;;;;;19.56;34.24;98844.73;232863;1217;139259;-58
2022/05/21 20:12:43;;;;;;;3.00;1.20;;;;;;;19.55;34.37;98844.25;233459;1217;137938;-60
2022/05/21 20:17:47;;;;;;;6.80;1.20;;;;;;;19.49;34.23;98842.95;233387;1217;138850;-62
2022/05/21 20:23:12;;;;;;;3.80;1.10;;;;;;;19.41;34.44;98846.47;233370;1217;139516;-62
2022/05/21 20:28:15;;;;;;;4.60;2.70;;;;;;;19.30;34.54;98845.46;233621;1217;138126;-61
2022/05/21 20:33:26;;;;;;;6.10;3.10;;;;;;;19.24;34.73;98846.05;233516;1217;138569;-61
2022/05/21 20:38:33;;;;;;;4.40;1.80;;;;;;;19.18;35.09;98838.34;233480;1217;138863;-61
2022/05/21 20:43:37;;;;;;;4.20;1.90;;;;;;;19.12;35.21;98848.08;233414;1217;138304;-62
2022/05/21 20:54:02;;;;;;;3.60;1.70;;;;;;;19.00;35.31;98861.00;233553;1217;138333;-61
2022/05/21 20:59:05;;;;;;;5.90;1.90;;;;;;;18.92;35.70;98863.38;233435;1217;137926;-62
2022/05/21 21:04:08;;;;;;;7.60;1.50;;;;;;;18.89;35.73;98864.77;233562;1217;137915;-64
2022/05/21 21:09:11;;;;;;;3.20;1.80;;;;;;;18.83;35.83;98861.23;233505;1217;138690;-62
2022/05/21 21:14:14;;;;;;;3.40;1.60;;;;;;;18.78;36.04;98856.62;233485;1217;140731;-61
2022/05/21 21:19:17;;;;;;;9.50;3.70;;;;;;;18.73;36.26;98856.36;233368;1217;138633;-62
2022/05/21 21:24:20;;;;;;;5.60;1.80;;;;;;;18.71;36.52;98852.42;233389;1217;138302;-62
2022/05/21 21:29:24;;;;;;;4.80;1.90;;;;;;;18.69;36.79;98854.23;233509;1217;139119;-60
2022/05/21 21:34:27;;;;;;;5.10;1.80;;;;;;;18.61;36.89;98851.74;233607;1217;139412;-61
2022/05/21 21:39:31;;;;;;;5.50;1.50;;;;;;;18.56;37.12;98850.05;233340;1217;138640;-61
2022/05/21 21:52:28;;;;;;;8.40;2.60;;;;;;;18.41;37.38;98834.27;233547;1218;138410;-62
2022/05/21 21:57:49;;;;;;;3.60;1.70;;;;;;;18.35;37.89;98837.56;233448;1217;138206;-62
2022/05/21 22:03:13;;;;;;;6.40;1.70;;;;;;;18.29;37.98;98839.95;233464;1217;138411;-64
2022/05/21 22:08:16;;;;;;;5.70;2.30;;;;;;;18.22;37.90;98834.70;233542;1217;138947;-61
2022/05/21 22:13:19;;;;;;;9.30;2.10;;;;;;;18.15;38.24;98848.32;233504;1217;138255;-60
2022/05/21 22:18:22;;;;;;;6.80;2.20;;;;;;;18.08;38.27;98849.38;233475;1217;138622;-62
2022/05/21 22:23:25;;;;;;;13.40;9.50;;;;;;;18.06;38.43;98857.41;233422;1217;138848;-62
2022/05/21 22:28:28;;;;;;;8.60;2.50;;;;;;;18.04;38.73;98861.26;233611;1217;138296;-61
2022/05/21 22:33:32;;;;;;;6.90;1.80;;;;;;;18.01;38.67;98865.63;233608;1217;138959;-60
2022/05/21 22:38:36;;;;;;;3.90;2.00;;;;;;;18.00;38.73;98870.02;233547;1217;138536;-62
2022/05/21 22:43:39;;;;;;;4.30;1.70;;;;;;;17.97;38.87;98872.66;233466;1217;138954;-62
2022/05/21 22:48:42;;;;;;;6.40;2.50;;;;;;;17.91;38.87;98864.99;233618;1217;138371;-61
2022/05/21 22:53:46;;;;;;;4.30;2.00;;;;;;;17.82;39.35;98859.05;233665;1217;138295;-61
2022/05/21 22:58:51;;;;;;;4.70;2.10;;;;;;;17.72;39.50;98856.13;233413;1217;138078;-61
2022/05/21 23:03:55;;;;;;;3.20;1.70;;;;;;;17.61;39.74;98851.46;233680;1217;138123;-61
2022/05/21 23:08:58;;;;;;;4.40;1.70;;;;;;;17.53;40.07;98852.58;233615;1217;138418;-62
2022/05/21 23:19:24;;;;;;;2.50;1.20;;;;;;;17.39;40.45;98851.59;233311;1219;137765;-62
2022/05/21 23:24:27;;;;;;;3.40;1.30;;;;;;;17.30;40.76;98851.67;232907;1217;138499;-62
2022/05/21 23:29:30;;;;;;;3.50;1.40;;;;;;;17.21;41.07;98854.30;233503;1217;138200;-60
2022/05/21 23:34:33;;;;;;;4.80;1.20;;;;;;;17.15;41.38;98851.59;233834;1217;139030;-60
2022/05/21 23:39:37;;;;;;;4.40;1.40;;;;;;;17.06;41.52;98847.23;233733;1217;138378;-61
2022/05/21 23:44:41;;;;;;;2.70;1.30;;;;;;;17.00;41.87;98853.58;233505;1217;138620;-60
2022/05/21 23:49:44;;;;;;;3.90;1.10;;;;;;;16.95;42.08;98861.20;232962;1217;138847;-62
2022/05/21 23:54:47;;;;;;;1.80;0.90;;;;;;;16.90;41.93;98856.77;233580;1217;138294;-60
2022/05/21 23:59:50;;;;;;;4.80;1.10;;;;;;;16.89;42.25;98859.79;233576;1217;138854;-61
